sensor_id;sensor_type;location;lat;lon;timestamp;P1;durP1;ratioP1;P2;durP2;ratioP2
26582;SDS011;14230;45.382;10.998;2022-12-18T00:01:34;25.17;;;14.63;;
26582;SDS011;14230;45.382;10.998;2022-12-18T00:04:06;22.90;;;14.70;;
26582;SDS011;14230;45.382;10.998;2022-12-18T00:06:41;24.95;;;17.95;;
26582;SDS011;14230;45.382;10.998;2022-12-18T00:09:10;25.13;;;16.92;;
26582;SDS011;14230;45.382;10.998;2022-12-18T00:11:37;23.52;;;16.65;;
26582;SDS011;14230;45.382;10.998;2022-12-18T00:14:05;23.27;;;16.48;;
26582;SDS011;14230;45.382;10.998;2022-12-18T00:16:32;20.80;;;16.05;;
26582;SDS011;14230;45.382;10.998;2022-12-18T00:19:02;22.75;;;17.65;;
26582;SDS011;14230;45.382;10.998;2022-12-18T00:21:31;24.92;;;17.45;;
26582;SDS011;14230;45.382;10.998;2022-12-18T00:23:59;24.08;;;16.85;;
26582;SDS011;14230;45.382;10.998;2022-12-18T00:26:30;23.88;;;16.65;;
26582;SDS011;14230;45.382;10.998;2022-12-18T00:29:02;24.98;;;17.45;;
26582;SDS011;14230;45.382;10.998;2022-12-18T00:31:32;23.30;;;16.20;;
26582;SDS011;14230;45.382;10.998;2022-12-18T00:34:00;24.55;;;17.08;;
26582;SDS011;14230;45.382;10.998;2022-12-18T00:36:29;24.92;;;16.65;;
26582;SDS011;14230;45.382;10.998;2022-12-18T00:38:59;26.02;;;18.08;;
26582;SDS011;14230;45.382;10.998;2022-12-18T00:41:28;28.08;;;18.00;;
26582;SDS011;14230;45.382;10.998;2022-12-18T00:44:15;21.50;;;17.58;;
26582;SDS011;14230;45.382;10.998;2022-12-18T00:46:44;25.85;;;17.67;;
26582;SDS011;14230;45.382;10.998;2022-12-18T00:49:13;23.27;;;16.13;;
26582;SDS011;14230;45.382;10.998;2022-12-18T00:51:41;21.73;;;15.90;;
26582;SDS011;14230;45.382;10.998;2022-12-18T00:54:10;21.08;;;15.15;;
26582;SDS011;14230;45.382;10.998;2022-12-18T00:56:38;17.95;;;14.63;;
26582;SDS011;14230;45.382;10.998;2022-12-18T00:59:15;21.10;;;14.35;;
26582;SDS011;14230;45.382;10.998;2022-12-18T01:01:43;23.17;;;15.45;;
26582;SDS011;14230;45.382;10.998;2022-12-18T01:04:11;23.23;;;16.35;;
26582;SDS011;14230;45.382;10.998;2022-12-18T01:06:39;20.73;;;15.70;;
26582;SDS011;14230;45.382;10.998;2022-12-18T01:09:07;20.92;;;15.85;;
26582;SDS011;14230;45.382;10.998;2022-12-18T01:11:36;18.13;;;14.73;;
26582;SDS011;14230;45.382;10.998;2022-12-18T01:14:03;18.75;;;15.63;;
26582;SDS011;14230;45.382;10.998;2022-12-18T01:16:31;19.95;;;14.82;;
26582;SDS011;14230;45.382;10.998;2022-12-18T01:18:59;18.98;;;14.88;;
26582;SDS011;14230;45.382;10.998;2022-12-18T01:21:26;22.02;;;15.38;;
26582;SDS011;14230;45.382;10.998;2022-12-18T01:23:55;19.48;;;14.15;;
26582;SDS011;14230;45.382;10.998;2022-12-18T01:26:23;21.02;;;14.48;;
26582;SDS011;14230;45.382;10.998;2022-12-18T01:28:53;17.10;;;13.02;;
26582;SDS011;14230;45.382;10.998;2022-12-18T01:31:23;18.23;;;14.75;;
26582;SDS011;14230;45.382;10.998;2022-12-18T01:33:55;19.60;;;14.35;;
26582;SDS011;14230;45.382;10.998;2022-12-18T01:36:24;19.17;;;14.95;;
26582;SDS011;14230;45.382;10.998;2022-12-18T01:38:54;19.58;;;14.95;;
26582;SDS011;14230;45.382;10.998;2022-12-18T01:41:23;16.67;;;14.02;;
26582;SDS011;14230;45.382;10.998;2022-12-18T01:49:55;21.48;;;13.57;;
26582;SDS011;14230;45.382;10.998;2022-12-18T01:52:26;16.50;;;14.15;;
26582;SDS011;14230;45.382;10.998;2022-12-18T01:54:56;19.23;;;13.48;;
26582;SDS011;14230;45.382;10.998;2022-12-18T01:57:25;15.00;;;13.23;;
26582;SDS011;14230;45.382;10.998;2022-12-18T01:59:54;16.38;;;13.70;;
26582;SDS011;14230;45.382;10.998;2022-12-18T02:02:26;16.48;;;13.88;;
26582;SDS011;14230;45.382;10.998;2022-12-18T02:04:58;16.02;;;13.18;;
26582;SDS011;14230;45.382;10.998;2022-12-18T02:10:26;18.33;;;13.32;;
26582;SDS011;14230;45.382;10.998;2022-12-18T02:18:21;19.80;;;12.60;;
26582;SDS011;14230;45.382;10.998;2022-12-18T02:29:08;17.63;;;13.15;;
26582;SDS011;14230;45.382;10.998;2022-12-18T02:31:53;17.38;;;14.65;;
26582;SDS011;14230;45.382;10.998;2022-12-18T02:36:53;19.83;;;15.02;;
26582;SDS011;14230;45.382;10.998;2022-12-18T02:39:22;16.05;;;13.23;;
26582;SDS011;14230;45.382;10.998;2022-12-18T02:42:03;19.60;;;14.73;;
26582;SDS011;14230;45.382;10.998;2022-12-18T02:44:41;26.75;;;17.20;;
26582;SDS011;14230;45.382;10.998;2022-12-18T02:47:20;24.52;;;18.30;;
26582;SDS011;14230;45.382;10.998;2022-12-18T03:00:32;28.27;;;18.85;;
26582;SDS011;14230;45.382;10.998;2022-12-18T03:03:14;32.50;;;21.88;;
26582;SDS011;14230;45.382;10.998;2022-12-18T03:05:58;26.67;;;18.70;;
26582;SDS011;14230;45.382;10.998;2022-12-18T03:08:33;28.63;;;20.35;;
26582;SDS011;14230;45.382;10.998;2022-12-18T03:11:07;26.90;;;18.10;;
26582;SDS011;14230;45.382;10.998;2022-12-18T03:16:15;26.10;;;18.25;;
26582;SDS011;14230;45.382;10.998;2022-12-18T03:18:54;35.00;;;18.20;;
26582;SDS011;14230;45.382;10.998;2022-12-18T03:21:33;31.30;;;18.75;;
26582;SDS011;14230;45.382;10.998;2022-12-18T03:24:06;30.00;;;19.02;;
26582;SDS011;14230;45.382;10.998;2022-12-18T03:26:37;24.55;;;16.98;;
26582;SDS011;14230;45.382;10.998;2022-12-18T03:29:15;28.20;;;16.35;;
26582;SDS011;14230;45.382;10.998;2022-12-18T03:32:00;24.95;;;16.02;;
26582;SDS011;14230;45.382;10.998;2022-12-18T03:34:35;26.50;;;16.60;;
26582;SDS011;14230;45.382;10.998;2022-12-18T03:37:07;24.65;;;17.90;;
26582;SDS011;14230;45.382;10.998;2022-12-18T03:39:36;23.63;;;17.02;;
26582;SDS011;14230;45.382;10.998;2022-12-18T03:42:09;22.80;;;15.75;;
26582;SDS011;14230;45.382;10.998;2022-12-18T03:45:32;25.35;;;16.67;;
26582;SDS011;14230;45.382;10.998;2022-12-18T03:50:59;28.75;;;16.42;;
26582;SDS011;14230;45.382;10.998;2022-12-18T03:53:49;25.10;;;17.75;;
26582;SDS011;14230;45.382;10.998;2022-12-18T03:56:29;24.65;;;16.55;;
26582;SDS011;14230;45.382;10.998;2022-12-18T04:01:34;23.20;;;15.50;;
26582;SDS011;14230;45.382;10.998;2022-12-18T04:04:05;28.45;;;17.88;;
26582;SDS011;14230;45.382;10.998;2022-12-18T04:09:07;23.27;;;16.92;;
26582;SDS011;14230;45.382;10.998;2022-12-18T04:11:39;22.27;;;15.80;;
26582;SDS011;14230;45.382;10.998;2022-12-18T04:14:08;21.27;;;15.80;;
26582;SDS011;14230;45.382;10.998;2022-12-18T04:16:41;24.83;;;15.77;;
26582;SDS011;14230;45.382;10.998;2022-12-18T04:19:12;22.50;;;16.00;;
26582;SDS011;14230;45.382;10.998;2022-12-18T04:21:42;22.60;;;16.23;;
26582;SDS011;14230;45.382;10.998;2022-12-18T04:24:11;20.88;;;15.48;;
26582;SDS011;14230;45.382;10.998;2022-12-18T04:26:44;24.08;;;15.25;;
26582;SDS011;14230;45.382;10.998;2022-12-18T04:29:22;19.98;;;14.23;;
26582;SDS011;14230;45.382;10.998;2022-12-18T04:31:50;21.13;;;14.88;;
26582;SDS011;14230;45.382;10.998;2022-12-18T04:34:18;18.38;;;14.82;;
26582;SDS011;14230;45.382;10.998;2022-12-18T04:36:49;22.13;;;14.93;;
26582;SDS011;14230;45.382;10.998;2022-12-18T04:39:17;22.77;;;17.02;;
26582;SDS011;14230;45.382;10.998;2022-12-18T04:41:47;20.83;;;15.75;;
26582;SDS011;14230;45.382;10.998;2022-12-18T04:44:14;22.42;;;15.15;;
26582;SDS011;14230;45.382;10.998;2022-12-18T04:46:42;26.77;;;16.33;;
26582;SDS011;14230;45.382;10.998;2022-12-18T04:49:09;22.00;;;16.00;;
26582;SDS011;14230;45.382;10.998;2022-12-18T04:51:37;23.70;;;14.63;;
26582;SDS011;14230;45.382;10.998;2022-12-18T04:54:05;20.83;;;15.52;;
26582;SDS011;14230;45.382;10.998;2022-12-18T04:56:32;23.42;;;16.02;;
26582;SDS011;14230;45.382;10.998;2022-12-18T04:59:00;19.95;;;15.68;;
26582;SDS011;14230;45.382;10.998;2022-12-18T05:01:27;21.25;;;16.23;;
26582;SDS011;14230;45.382;10.998;2022-12-18T05:04:01;21.23;;;15.43;;
26582;SDS011;14230;45.382;10.998;2022-12-18T05:06:28;19.90;;;15.45;;
26582;SDS011;14230;45.382;10.998;2022-12-18T05:08:56;18.60;;;14.73;;
26582;SDS011;14230;45.382;10.998;2022-12-18T05:11:24;19.30;;;15.63;;
26582;SDS011;14230;45.382;10.998;2022-12-18T05:13:51;20.92;;;16.15;;
26582;SDS011;14230;45.382;10.998;2022-12-18T05:16:18;19.58;;;15.38;;
26582;SDS011;14230;45.382;10.998;2022-12-18T05:18:46;21.30;;;16.02;;
26582;SDS011;14230;45.382;10.998;2022-12-18T05:21:13;22.45;;;16.38;;
26582;SDS011;14230;45.382;10.998;2022-12-18T05:23:41;22.08;;;16.42;;
26582;SDS011;14230;45.382;10.998;2022-12-18T05:26:09;34.05;;;16.52;;
26582;SDS011;14230;45.382;10.998;2022-12-18T05:28:42;23.63;;;17.15;;
26582;SDS011;14230;45.382;10.998;2022-12-18T05:31:10;21.95;;;16.52;;
26582;SDS011;14230;45.382;10.998;2022-12-18T05:33:38;20.63;;;16.00;;
26582;SDS011;14230;45.382;10.998;2022-12-18T05:36:06;22.08;;;16.65;;
26582;SDS011;14230;45.382;10.998;2022-12-18T05:38:36;21.50;;;16.33;;
26582;SDS011;14230;45.382;10.998;2022-12-18T05:41:05;19.63;;;16.60;;
26582;SDS011;14230;45.382;10.998;2022-12-18T05:43:34;27.00;;;15.13;;
26582;SDS011;14230;45.382;10.998;2022-12-18T05:46:05;22.15;;;16.85;;
26582;SDS011;14230;45.382;10.998;2022-12-18T05:48:33;23.20;;;17.25;;
26582;SDS011;14230;45.382;10.998;2022-12-18T05:51:05;22.25;;;17.83;;
26582;SDS011;14230;45.382;10.998;2022-12-18T05:53:34;21.85;;;17.50;;
26582;SDS011;14230;45.382;10.998;2022-12-18T05:56:04;22.90;;;17.38;;
26582;SDS011;14230;45.382;10.998;2022-12-18T05:58:34;24.30;;;17.23;;
26582;SDS011;14230;45.382;10.998;2022-12-18T06:03:40;23.88;;;16.70;;
26582;SDS011;14230;45.382;10.998;2022-12-18T06:08:46;24.27;;;17.08;;
26582;SDS011;14230;45.382;10.998;2022-12-18T06:11:16;23.05;;;16.52;;
26582;SDS011;14230;45.382;10.998;2022-12-18T06:13:45;22.92;;;16.85;;
26582;SDS011;14230;45.382;10.998;2022-12-18T06:16:13;25.05;;;17.27;;
26582;SDS011;14230;45.382;10.998;2022-12-18T06:18:41;30.38;;;19.42;;
26582;SDS011;14230;45.382;10.998;2022-12-18T06:21:08;41.63;;;20.20;;
26582;SDS011;14230;45.382;10.998;2022-12-18T06:23:35;35.72;;;21.70;;
26582;SDS011;14230;45.382;10.998;2022-12-18T06:26:07;35.67;;;22.27;;
26582;SDS011;14230;45.382;10.998;2022-12-18T06:28:36;31.50;;;21.13;;
26582;SDS011;14230;45.382;10.998;2022-12-18T06:31:03;27.85;;;19.45;;
26582;SDS011;14230;45.382;10.998;2022-12-18T06:33:31;23.05;;;16.77;;
26582;SDS011;14230;45.382;10.998;2022-12-18T06:36:00;21.80;;;16.98;;
26582;SDS011;14230;45.382;10.998;2022-12-18T06:38:29;29.40;;;17.42;;
26582;SDS011;14230;45.382;10.998;2022-12-18T06:40:58;20.70;;;16.00;;
26582;SDS011;14230;45.382;10.998;2022-12-18T06:43:26;27.42;;;15.27;;
26582;SDS011;14230;45.382;10.998;2022-12-18T06:46:03;21.13;;;16.27;;
26582;SDS011;14230;45.382;10.998;2022-12-18T06:48:31;21.98;;;15.77;;
26582;SDS011;14230;45.382;10.998;2022-12-18T06:50:59;19.40;;;15.52;;
26582;SDS011;14230;45.382;10.998;2022-12-18T06:53:27;21.98;;;16.63;;
26582;SDS011;14230;45.382;10.998;2022-12-18T06:56:01;20.63;;;15.98;;
26582;SDS011;14230;45.382;10.998;2022-12-18T06:58:37;23.13;;;15.80;;
26582;SDS011;14230;45.382;10.998;2022-12-18T07:01:05;24.88;;;17.15;;
26582;SDS011;14230;45.382;10.998;2022-12-18T07:03:35;25.80;;;17.67;;
26582;SDS011;14230;45.382;10.998;2022-12-18T07:06:04;23.20;;;17.23;;
26582;SDS011;14230;45.382;10.998;2022-12-18T07:08:32;26.23;;;17.15;;
26582;SDS011;14230;45.382;10.998;2022-12-18T07:11:02;20.75;;;14.63;;
26582;SDS011;14230;45.382;10.998;2022-12-18T07:13:31;29.90;;;15.60;;
26582;SDS011;14230;45.382;10.998;2022-12-18T07:16:08;18.58;;;14.50;;
26582;SDS011;14230;45.382;10.998;2022-12-18T07:18:48;20.35;;;14.93;;
26582;SDS011;14230;45.382;10.998;2022-12-18T07:21:16;20.00;;;14.50;;
26582;SDS011;14230;45.382;10.998;2022-12-18T07:23:45;23.90;;;15.35;;
26582;SDS011;14230;45.382;10.998;2022-12-18T07:26:15;21.17;;;14.00;;
26582;SDS011;14230;45.382;10.998;2022-12-18T07:28:44;19.33;;;14.10;;
26582;SDS011;14230;45.382;10.998;2022-12-18T07:31:12;15.85;;;13.00;;
26582;SDS011;14230;45.382;10.998;2022-12-18T07:33:44;19.30;;;14.55;;
26582;SDS011;14230;45.382;10.998;2022-12-18T07:36:13;18.50;;;14.63;;
26582;SDS011;14230;45.382;10.998;2022-12-18T07:38:40;20.02;;;14.63;;
26582;SDS011;14230;45.382;10.998;2022-12-18T07:41:11;21.73;;;14.27;;
26582;SDS011;14230;45.382;10.998;2022-12-18T07:43:40;19.65;;;14.32;;
26582;SDS011;14230;45.382;10.998;2022-12-18T07:46:09;18.65;;;15.02;;
26582;SDS011;14230;45.382;10.998;2022-12-18T07:48:39;20.02;;;13.73;;
26582;SDS011;14230;45.382;10.998;2022-12-18T07:51:08;20.40;;;16.13;;
26582;SDS011;14230;45.382;10.998;2022-12-18T07:53:37;21.05;;;14.55;;
26582;SDS011;14230;45.382;10.998;2022-12-18T07:56:06;20.70;;;14.70;;
26582;SDS011;14230;45.382;10.998;2022-12-18T07:58:55;18.90;;;14.15;;
26582;SDS011;14230;45.382;10.998;2022-12-18T08:01:23;17.05;;;13.80;;
26582;SDS011;14230;45.382;10.998;2022-12-18T08:03:51;20.63;;;14.10;;
26582;SDS011;14230;45.382;10.998;2022-12-18T08:06:18;24.60;;;13.38;;
26582;SDS011;14230;45.382;10.998;2022-12-18T08:08:50;22.23;;;14.88;;
26582;SDS011;14230;45.382;10.998;2022-12-18T08:11:19;23.25;;;13.15;;
26582;SDS011;14230;45.382;10.998;2022-12-18T08:13:47;16.95;;;13.20;;
26582;SDS011;14230;45.382;10.998;2022-12-18T08:16:15;22.92;;;15.95;;
26582;SDS011;14230;45.382;10.998;2022-12-18T08:18:43;21.25;;;14.40;;
26582;SDS011;14230;45.382;10.998;2022-12-18T08:21:20;19.45;;;14.23;;
26582;SDS011;14230;45.382;10.998;2022-12-18T08:23:53;19.33;;;14.73;;
26582;SDS011;14230;45.382;10.998;2022-12-18T08:26:23;16.40;;;13.40;;
26582;SDS011;14230;45.382;10.998;2022-12-18T08:28:52;17.33;;;13.38;;
26582;SDS011;14230;45.382;10.998;2022-12-18T08:33:52;22.00;;;15.68;;
26582;SDS011;14230;45.382;10.998;2022-12-18T08:36:21;20.85;;;13.60;;
26582;SDS011;14230;45.382;10.998;2022-12-18T08:38:50;20.85;;;15.13;;
26582;SDS011;14230;45.382;10.998;2022-12-18T08:41:18;18.15;;;14.52;;
26582;SDS011;14230;45.382;10.998;2022-12-18T08:43:46;19.00;;;14.38;;
26582;SDS011;14230;45.382;10.998;2022-12-18T08:46:34;17.67;;;13.00;;
26582;SDS011;14230;45.382;10.998;2022-12-18T08:49:07;16.63;;;13.18;;
26582;SDS011;14230;45.382;10.998;2022-12-18T08:51:35;17.13;;;12.73;;
26582;SDS011;14230;45.382;10.998;2022-12-18T08:58:35;18.23;;;12.32;;
26582;SDS011;14230;45.382;10.998;2022-12-18T09:11:14;16.27;;;12.63;;
26582;SDS011;14230;45.382;10.998;2022-12-18T09:45:03;18.15;;;11.60;;
26582;SDS011;14230;45.382;10.998;2022-12-18T10:41:51;13.73;;;9.13;;
26582;SDS011;14230;45.382;10.998;2022-12-18T11:01:25;18.00;;;12.18;;
26582;SDS011;14230;45.382;10.998;2022-12-18T11:12:53;13.52;;;10.32;;
26582;SDS011;14230;45.382;10.998;2022-12-18T11:17:17;13.10;;;9.13;;
26582;SDS011;14230;45.382;10.998;2022-12-18T11:24:26;13.95;;;9.43;;
26582;SDS011;14230;45.382;10.998;2022-12-18T12:55:24;45.35;;;29.55;;
26582;SDS011;14230;45.382;10.998;2022-12-18T14:28:13;12.52;;;9.38;;
26582;SDS011;14230;45.382;10.998;2022-12-18T14:30:49;16.08;;;10.65;;
26582;SDS011;14230;45.382;10.998;2022-12-18T14:38:23;15.25;;;9.02;;
26582;SDS011;14230;45.382;10.998;2022-12-18T14:41:06;16.60;;;10.43;;
26582;SDS011;14230;45.382;10.998;2022-12-18T14:43:40;13.10;;;9.50;;
26582;SDS011;14230;45.382;10.998;2022-12-18T14:48:57;18.45;;;10.52;;
26582;SDS011;14230;45.382;10.998;2022-12-18T14:51:49;17.20;;;10.70;;
26582;SDS011;14230;45.382;10.998;2022-12-18T14:54:20;16.30;;;9.85;;
26582;SDS011;14230;45.382;10.998;2022-12-18T14:57:24;16.65;;;10.57;;
26582;SDS011;14230;45.382;10.998;2022-12-18T14:59:52;17.10;;;11.93;;
26582;SDS011;14230;45.382;10.998;2022-12-18T15:02:26;16.13;;;10.82;;
26582;SDS011;14230;45.382;10.998;2022-12-18T15:05:00;15.80;;;10.98;;
26582;SDS011;14230;45.382;10.998;2022-12-18T15:07:39;21.15;;;10.98;;
26582;SDS011;14230;45.382;10.998;2022-12-18T15:18:11;15.75;;;11.90;;
26582;SDS011;14230;45.382;10.998;2022-12-18T15:21:07;15.40;;;10.80;;
26582;SDS011;14230;45.382;10.998;2022-12-18T15:23:38;21.33;;;11.98;;
26582;SDS011;14230;45.382;10.998;2022-12-18T15:26:20;19.70;;;12.95;;
26582;SDS011;14230;45.382;10.998;2022-12-18T15:28:50;24.95;;;13.82;;
26582;SDS011;14230;45.382;10.998;2022-12-18T15:31:24;23.63;;;14.93;;
26582;SDS011;14230;45.382;10.998;2022-12-18T15:36:29;25.83;;;14.57;;
26582;SDS011;14230;45.382;10.998;2022-12-18T15:38:57;21.40;;;13.90;;
26582;SDS011;14230;45.382;10.998;2022-12-18T15:41:33;19.02;;;13.52;;
26582;SDS011;14230;45.382;10.998;2022-12-18T15:44:15;28.65;;;17.63;;
26582;SDS011;14230;45.382;10.998;2022-12-18T15:46:50;32.25;;;19.42;;
26582;SDS011;14230;45.382;10.998;2022-12-18T15:49:18;37.55;;;21.60;;
26582;SDS011;14230;45.382;10.998;2022-12-18T15:51:47;32.47;;;21.67;;
26582;SDS011;14230;45.382;10.998;2022-12-18T15:54:19;36.45;;;22.60;;
26582;SDS011;14230;45.382;10.998;2022-12-18T15:57:09;39.95;;;22.67;;
26582;SDS011;14230;45.382;10.998;2022-12-18T15:59:54;62.08;;;32.03;;
26582;SDS011;14230;45.382;10.998;2022-12-18T16:02:26;46.90;;;26.55;;
26582;SDS011;14230;45.382;10.998;2022-12-18T16:04:56;55.95;;;30.60;;
26582;SDS011;14230;45.382;10.998;2022-12-18T16:07:24;48.75;;;28.35;;
26582;SDS011;14230;45.382;10.998;2022-12-18T16:09:56;71.88;;;37.10;;
26582;SDS011;14230;45.382;10.998;2022-12-18T16:12:27;47.63;;;30.07;;
26582;SDS011;14230;45.382;10.998;2022-12-18T16:14:55;50.67;;;29.60;;
26582;SDS011;14230;45.382;10.998;2022-12-18T16:17:23;55.88;;;32.78;;
26582;SDS011;14230;45.382;10.998;2022-12-18T16:19:51;50.25;;;30.60;;
26582;SDS011;14230;45.382;10.998;2022-12-18T16:22:21;49.00;;;28.52;;
26582;SDS011;14230;45.382;10.998;2022-12-18T16:24:52;49.47;;;30.27;;
26582;SDS011;14230;45.382;10.998;2022-12-18T16:27:21;49.00;;;28.45;;
26582;SDS011;14230;45.382;10.998;2022-12-18T16:29:50;50.45;;;31.00;;
26582;SDS011;14230;45.382;10.998;2022-12-18T16:32:19;56.63;;;32.40;;
26582;SDS011;14230;45.382;10.998;2022-12-18T16:34:47;52.17;;;28.98;;
26582;SDS011;14230;45.382;10.998;2022-12-18T16:37:15;52.58;;;30.38;;
26582;SDS011;14230;45.382;10.998;2022-12-18T16:39:43;54.90;;;32.22;;
26582;SDS011;14230;45.382;10.998;2022-12-18T16:42:15;52.65;;;32.15;;
26582;SDS011;14230;45.382;10.998;2022-12-18T16:44:47;53.33;;;33.25;;
26582;SDS011;14230;45.382;10.998;2022-12-18T16:47:16;57.90;;;33.22;;
26582;SDS011;14230;45.382;10.998;2022-12-18T16:49:44;57.55;;;34.58;;
26582;SDS011;14230;45.382;10.998;2022-12-18T16:52:12;57.72;;;31.95;;
26582;SDS011;14230;45.382;10.998;2022-12-18T16:54:40;59.47;;;32.88;;
26582;SDS011;14230;45.382;10.998;2022-12-18T16:57:09;59.38;;;34.88;;
26582;SDS011;14230;45.382;10.998;2022-12-18T16:59:40;61.08;;;35.38;;
26582;SDS011;14230;45.382;10.998;2022-12-18T17:02:21;62.17;;;36.75;;
26582;SDS011;14230;45.382;10.998;2022-12-18T17:04:55;57.85;;;31.85;;
26582;SDS011;14230;45.382;10.998;2022-12-18T17:07:24;62.47;;;35.25;;
26582;SDS011;14230;45.382;10.998;2022-12-18T17:09:52;59.88;;;33.92;;
26582;SDS011;14230;45.382;10.998;2022-12-18T17:12:21;63.22;;;34.28;;
26582;SDS011;14230;45.382;10.998;2022-12-18T17:14:49;61.35;;;34.22;;
26582;SDS011;14230;45.382;10.998;2022-12-18T17:17:17;61.58;;;33.13;;
26582;SDS011;14230;45.382;10.998;2022-12-18T17:19:48;58.95;;;33.65;;
26582;SDS011;14230;45.382;10.998;2022-12-18T17:22:16;58.35;;;33.35;;
26582;SDS011;14230;45.382;10.998;2022-12-18T17:24:43;60.40;;;32.65;;
26582;SDS011;14230;45.382;10.998;2022-12-18T17:27:11;65.10;;;33.95;;
26582;SDS011;14230;45.382;10.998;2022-12-18T17:29:39;61.38;;;34.55;;
26582;SDS011;14230;45.382;10.998;2022-12-18T17:32:14;59.78;;;33.97;;
26582;SDS011;14230;45.382;10.998;2022-12-18T17:34:43;62.25;;;34.65;;
26582;SDS011;14230;45.382;10.998;2022-12-18T17:37:10;61.53;;;35.33;;
26582;SDS011;14230;45.382;10.998;2022-12-18T17:39:38;59.28;;;34.92;;
26582;SDS011;14230;45.382;10.998;2022-12-18T17:42:05;67.72;;;37.63;;
26582;SDS011;14230;45.382;10.998;2022-12-18T17:44:40;71.88;;;37.78;;
26582;SDS011;14230;45.382;10.998;2022-12-18T17:47:08;70.03;;;38.70;;
26582;SDS011;14230;45.382;10.998;2022-12-18T17:49:38;66.57;;;36.05;;
26582;SDS011;14230;45.382;10.998;2022-12-18T17:52:05;75.85;;;41.60;;
26582;SDS011;14230;45.382;10.998;2022-12-18T17:54:33;72.75;;;41.90;;
26582;SDS011;14230;45.382;10.998;2022-12-18T17:57:04;74.05;;;40.22;;
26582;SDS011;14230;45.382;10.998;2022-12-18T17:59:31;78.80;;;42.65;;
26582;SDS011;14230;45.382;10.998;2022-12-18T18:01:59;76.88;;;42.28;;
26582;SDS011;14230;45.382;10.998;2022-12-18T18:04:27;90.70;;;46.20;;
26582;SDS011;14230;45.382;10.998;2022-12-18T18:06:54;83.57;;;43.00;;
26582;SDS011;14230;45.382;10.998;2022-12-18T18:09:22;80.22;;;43.72;;
26582;SDS011;14230;45.382;10.998;2022-12-18T18:11:49;74.32;;;40.78;;
26582;SDS011;14230;45.382;10.998;2022-12-18T18:14:36;84.63;;;42.05;;
26582;SDS011;14230;45.382;10.998;2022-12-18T18:17:04;84.20;;;42.65;;
26582;SDS011;14230;45.382;10.998;2022-12-18T18:19:32;83.82;;;43.40;;
26582;SDS011;14230;45.382;10.998;2022-12-18T18:22:00;85.13;;;44.00;;
26582;SDS011;14230;45.382;10.998;2022-12-18T18:24:30;81.38;;;40.97;;
26582;SDS011;14230;45.382;10.998;2022-12-18T18:27:03;78.70;;;41.10;;
26582;SDS011;14230;45.382;10.998;2022-12-18T18:29:34;78.28;;;42.28;;
26582;SDS011;14230;45.382;10.998;2022-12-18T18:32:05;70.47;;;40.53;;
26582;SDS011;14230;45.382;10.998;2022-12-18T18:34:34;77.47;;;41.45;;
26582;SDS011;14230;45.382;10.998;2022-12-18T18:37:02;75.50;;;39.72;;
26582;SDS011;14230;45.382;10.998;2022-12-18T18:39:31;83.95;;;41.50;;
26582;SDS011;14230;45.382;10.998;2022-12-18T18:41:59;83.55;;;40.72;;
26582;SDS011;14230;45.382;10.998;2022-12-18T18:44:28;89.10;;;47.65;;
26582;SDS011;14230;45.382;10.998;2022-12-18T18:46:59;91.53;;;47.30;;
26582;SDS011;14230;45.382;10.998;2022-12-18T18:49:29;88.18;;;47.10;;
26582;SDS011;14230;45.382;10.998;2022-12-18T18:51:57;85.60;;;47.72;;
26582;SDS011;14230;45.382;10.998;2022-12-18T18:54:26;93.95;;;47.08;;
26582;SDS011;14230;45.382;10.998;2022-12-18T18:56:54;80.88;;;41.55;;
26582;SDS011;14230;45.382;10.998;2022-12-18T18:59:42;85.72;;;45.28;;
26582;SDS011;14230;45.382;10.998;2022-12-18T19:02:11;95.68;;;47.72;;
26582;SDS011;14230;45.382;10.998;2022-12-18T19:04:40;87.65;;;45.97;;
26582;SDS011;14230;45.382;10.998;2022-12-18T19:07:13;131.93;;;65.95;;
26582;SDS011;14230;45.382;10.998;2022-12-18T19:09:56;121.85;;;62.60;;
26582;SDS011;14230;45.382;10.998;2022-12-18T19:12:30;120.75;;;58.53;;
26582;SDS011;14230;45.382;10.998;2022-12-18T19:15:17;122.50;;;59.65;;
26582;SDS011;14230;45.382;10.998;2022-12-18T19:17:52;124.53;;;61.95;;
26582;SDS011;14230;45.382;10.998;2022-12-18T19:20:22;133.30;;;64.07;;
26582;SDS011;14230;45.382;10.998;2022-12-18T19:22:50;134.80;;;68.72;;
26582;SDS011;14230;45.382;10.998;2022-12-18T19:25:25;143.45;;;69.82;;
26582;SDS011;14230;45.382;10.998;2022-12-18T19:28:08;164.05;;;75.03;;
26582;SDS011;14230;45.382;10.998;2022-12-18T19:30:48;153.40;;;73.35;;
26582;SDS011;14230;45.382;10.998;2022-12-18T19:33:26;147.85;;;71.93;;
26582;SDS011;14230;45.382;10.998;2022-12-18T19:36:10;115.45;;;59.35;;
26582;SDS011;14230;45.382;10.998;2022-12-18T19:38:45;113.45;;;57.22;;
26582;SDS011;14230;45.382;10.998;2022-12-18T19:41:14;118.50;;;53.47;;
26582;SDS011;14230;45.382;10.998;2022-12-18T19:43:45;151.35;;;54.28;;
26582;SDS011;14230;45.382;10.998;2022-12-18T19:46:16;153.93;;;47.53;;
26582;SDS011;14230;45.382;10.998;2022-12-18T19:48:46;139.85;;;50.50;;
26582;SDS011;14230;45.382;10.998;2022-12-18T19:51:21;151.85;;;51.05;;
26582;SDS011;14230;45.382;10.998;2022-12-18T19:53:52;130.40;;;47.08;;
26582;SDS011;14230;45.382;10.998;2022-12-18T19:56:26;134.23;;;42.50;;
26582;SDS011;14230;45.382;10.998;2022-12-18T19:58:57;118.38;;;46.25;;
26582;SDS011;14230;45.382;10.998;2022-12-18T20:01:26;133.25;;;46.38;;
26582;SDS011;14230;45.382;10.998;2022-12-18T20:03:55;127.53;;;43.65;;
26582;SDS011;14230;45.382;10.998;2022-12-18T20:06:27;130.85;;;43.03;;
26582;SDS011;14230;45.382;10.998;2022-12-18T20:09:02;99.47;;;39.92;;
26582;SDS011;14230;45.382;10.998;2022-12-18T20:11:32;90.22;;;39.20;;
26582;SDS011;14230;45.382;10.998;2022-12-18T20:14:08;75.50;;;38.10;;
26582;SDS011;14230;45.382;10.998;2022-12-18T20:16:40;74.53;;;36.47;;
